sensor_id;sensor_type;location;lat;lon;timestamp;temperature;humidity
67759;SHT31;54562;47.620;18.786;2022-07-23T00:01:46;25.09;46.36
67759;SHT31;54562;47.620;18.786;2022-07-23T00:04:51;25.02;46.23
67759;SHT31;54562;47.620;18.786;2022-07-23T00:07:56;24.96;46.63
67759;SHT31;54562;47.620;18.786;2022-07-23T00:11:01;24.89;46.63
67759;SHT31;54562;47.620;18.786;2022-07-23T00:14:06;24.81;46.59
67759;SHT31;54562;47.620;18.786;2022-07-23T00:17:11;24.75;47.15
67759;SHT31;54562;47.620;18.786;2022-07-23T00:20:16;24.68;47.31
67759;SHT31;54562;47.620;18.786;2022-07-23T00:23:21;24.59;47.98
67759;SHT31;54562;47.620;18.786;2022-07-23T00:26:26;24.51;48.51
67759;SHT31;54562;47.620;18.786;2022-07-23T00:29:32;24.44;48.47
67759;SHT31;54562;47.620;18.786;2022-07-23T00:32:45;24.37;48.50
67759;SHT31;54562;47.620;18.786;2022-07-23T00:35:57;24.31;48.64
67759;SHT31;54562;47.620;18.786;2022-07-23T00:39:03;24.25;50.43
67759;SHT31;54562;47.620;18.786;2022-07-23T00:42:08;24.18;50.08
67759;SHT31;54562;47.620;18.786;2022-07-23T00:45:12;24.12;49.98
67759;SHT31;54562;47.620;18.786;2022-07-23T00:48:17;24.06;49.83
67759;SHT31;54562;47.620;18.786;2022-07-23T00:51:22;24.01;50.98
67759;SHT31;54562;47.620;18.786;2022-07-23T00:54:28;23.95;50.78
67759;SHT31;54562;47.620;18.786;2022-07-23T00:57:33;23.89;50.28
67759;SHT31;54562;47.620;18.786;2022-07-23T01:00:39;23.84;50.01
67759;SHT31;54562;47.620;18.786;2022-07-23T01:03:44;23.79;50.59
67759;SHT31;54562;47.620;18.786;2022-07-23T01:06:49;23.74;50.11
67759;SHT31;54562;47.620;18.786;2022-07-23T01:09:54;23.69;49.53
67759;SHT31;54562;47.620;18.786;2022-07-23T01:13:01;23.67;49.16
67759;SHT31;54562;47.620;18.786;2022-07-23T01:16:09;23.66;49.82
67759;SHT31;54562;47.620;18.786;2022-07-23T01:19:14;23.62;49.69
67759;SHT31;54562;47.620;18.786;2022-07-23T01:22:20;23.58;50.24
67759;SHT31;54562;47.620;18.786;2022-07-23T01:25:32;23.55;50.00
67759;SHT31;54562;47.620;18.786;2022-07-23T01:28:36;23.50;49.58
67759;SHT31;54562;47.620;18.786;2022-07-23T01:31:41;23.48;49.28
67759;SHT31;54562;47.620;18.786;2022-07-23T01:34:47;23.45;48.92
67759;SHT31;54562;47.620;18.786;2022-07-23T01:37:52;23.43;49.15
67759;SHT31;54562;47.620;18.786;2022-07-23T01:40:56;23.40;49.94
67759;SHT31;54562;47.620;18.786;2022-07-23T01:44:02;23.37;49.76
67759;SHT31;54562;47.620;18.786;2022-07-23T01:47:07;23.34;49.00
67759;SHT31;54562;47.620;18.786;2022-07-23T01:50:12;23.33;49.33
67759;SHT31;54562;47.620;18.786;2022-07-23T01:53:17;23.30;49.34
67759;SHT31;54562;47.620;18.786;2022-07-23T01:56:22;23.28;49.26
67759;SHT31;54562;47.620;18.786;2022-07-23T01:59:27;23.27;49.23
67759;SHT31;54562;47.620;18.786;2022-07-23T02:02:33;23.27;48.94
67759;SHT31;54562;47.620;18.786;2022-07-23T02:05:37;23.28;48.52
67759;SHT31;54562;47.620;18.786;2022-07-23T02:08:42;23.31;48.22
67759;SHT31;54562;47.620;18.786;2022-07-23T02:11:47;23.33;48.01
67759;SHT31;54562;47.620;18.786;2022-07-23T02:14:52;23.36;47.97
67759;SHT31;54562;47.620;18.786;2022-07-23T02:17:57;23.37;47.78
67759;SHT31;54562;47.620;18.786;2022-07-23T02:21:02;23.38;48.05
67759;SHT31;54562;47.620;18.786;2022-07-23T02:24:09;23.39;47.88
67759;SHT31;54562;47.620;18.786;2022-07-23T02:27:14;23.42;48.03
67759;SHT31;54562;47.620;18.786;2022-07-23T02:30:19;23.45;48.16
67759;SHT31;54562;47.620;18.786;2022-07-23T02:33:24;23.46;47.94
67759;SHT31;54562;47.620;18.786;2022-07-23T02:36:29;23.48;48.59
67759;SHT31;54562;47.620;18.786;2022-07-23T02:39:35;23.48;48.20
67759;SHT31;54562;47.620;18.786;2022-07-23T02:42:40;23.49;48.38
67759;SHT31;54562;47.620;18.786;2022-07-23T02:45:45;23.49;47.70
67759;SHT31;54562;47.620;18.786;2022-07-23T02:48:50;23.50;48.53
67759;SHT31;54562;47.620;18.786;2022-07-23T02:51:54;23.48;47.93
67759;SHT31;54562;47.620;18.786;2022-07-23T02:54:59;23.46;48.08
67759;SHT31;54562;47.620;18.786;2022-07-23T02:58:04;23.40;49.72
67759;SHT31;54562;47.620;18.786;2022-07-23T03:01:09;23.31;50.70
67759;SHT31;54562;47.620;18.786;2022-07-23T03:04:14;23.23;50.42
67759;SHT31;54562;47.620;18.786;2022-07-23T03:07:19;23.20;49.94
67759;SHT31;54562;47.620;18.786;2022-07-23T03:10:24;23.16;49.47
67759;SHT31;54562;47.620;18.786;2022-07-23T03:13:29;23.12;50.01
67759;SHT31;54562;47.620;18.786;2022-07-23T03:16:37;23.03;51.28
67759;SHT31;54562;47.620;18.786;2022-07-23T03:19:42;22.96;51.77
67759;SHT31;54562;47.620;18.786;2022-07-23T03:22:47;22.90;51.67
67759;SHT31;54562;47.620;18.786;2022-07-23T03:25:52;22.84;51.76
67759;SHT31;54562;47.620;18.786;2022-07-23T03:28:57;22.80;51.52
67759;SHT31;54562;47.620;18.786;2022-07-23T03:32:04;22.79;50.63
67759;SHT31;54562;47.620;18.786;2022-07-23T03:35:10;22.81;50.51
67759;SHT31;54562;47.620;18.786;2022-07-23T03:38:18;22.83;50.97
67759;SHT31;54562;47.620;18.786;2022-07-23T03:41:23;22.83;51.92
67759;SHT31;54562;47.620;18.786;2022-07-23T03:44:28;22.83;51.33
67759;SHT31;54562;47.620;18.786;2022-07-23T03:47:33;22.87;50.82
67759;SHT31;54562;47.620;18.786;2022-07-23T03:50:37;22.91;51.02
67759;SHT31;54562;47.620;18.786;2022-07-23T03:53:43;22.93;52.21
67759;SHT31;54562;47.620;18.786;2022-07-23T03:56:47;22.96;53.04
67759;SHT31;54562;47.620;18.786;2022-07-23T03:59:52;22.97;52.84
67759;SHT31;54562;47.620;18.786;2022-07-23T04:02:57;22.99;52.07
67759;SHT31;54562;47.620;18.786;2022-07-23T04:06:02;23.03;51.03
67759;SHT31;54562;47.620;18.786;2022-07-23T04:09:08;23.08;51.05
67759;SHT31;54562;47.620;18.786;2022-07-23T04:12:13;23.15;50.85
67759;SHT31;54562;47.620;18.786;2022-07-23T04:15:17;23.21;51.10
67759;SHT31;54562;47.620;18.786;2022-07-23T04:18:22;23.26;51.00
67759;SHT31;54562;47.620;18.786;2022-07-23T04:21:27;23.32;50.68
67759;SHT31;54562;47.620;18.786;2022-07-23T04:24:31;23.38;50.37
67759;SHT31;54562;47.620;18.786;2022-07-23T04:27:37;23.46;50.87
67759;SHT31;54562;47.620;18.786;2022-07-23T04:30:41;23.54;50.79
67759;SHT31;54562;47.620;18.786;2022-07-23T04:33:46;23.63;50.22
67759;SHT31;54562;47.620;18.786;2022-07-23T04:36:51;23.73;49.94
67759;SHT31;54562;47.620;18.786;2022-07-23T04:39:56;23.86;49.80
67759;SHT31;54562;47.620;18.786;2022-07-23T04:43:01;23.99;49.82
67759;SHT31;54562;47.620;18.786;2022-07-23T04:46:07;24.13;50.03
67759;SHT31;54562;47.620;18.786;2022-07-23T04:49:14;24.28;49.79
67759;SHT31;54562;47.620;18.786;2022-07-23T04:52:20;24.42;49.45
67759;SHT31;54562;47.620;18.786;2022-07-23T04:55:25;24.58;48.82
67759;SHT31;54562;47.620;18.786;2022-07-23T04:58:30;24.70;49.01
67759;SHT31;54562;47.620;18.786;2022-07-23T05:01:35;24.83;48.80
67759;SHT31;54562;47.620;18.786;2022-07-23T05:04:40;24.96;49.14
67759;SHT31;54562;47.620;18.786;2022-07-23T05:07:45;25.16;51.08
67759;SHT31;54562;47.620;18.786;2022-07-23T05:10:50;25.30;51.70
67759;SHT31;54562;47.620;18.786;2022-07-23T05:13:55;25.41;51.72
67759;SHT31;54562;47.620;18.786;2022-07-23T05:16:59;25.54;51.11
67759;SHT31;54562;47.620;18.786;2022-07-23T05:20:05;25.68;51.30
67759;SHT31;54562;47.620;18.786;2022-07-23T05:23:11;25.85;51.30
67759;SHT31;54562;47.620;18.786;2022-07-23T05:26:16;25.98;51.62
67759;SHT31;54562;47.620;18.786;2022-07-23T05:29:23;26.15;51.19
67759;SHT31;54562;47.620;18.786;2022-07-23T05:32:28;26.34;50.06
67759;SHT31;54562;47.620;18.786;2022-07-23T05:35:34;26.65;49.13
67759;SHT31;54562;47.620;18.786;2022-07-23T05:38:40;26.92;48.85
67759;SHT31;54562;47.620;18.786;2022-07-23T05:41:45;27.18;48.27
67759;SHT31;54562;47.620;18.786;2022-07-23T05:44:50;27.47;47.22
67759;SHT31;54562;47.620;18.786;2022-07-23T05:47:55;27.77;47.27
67759;SHT31;54562;47.620;18.786;2022-07-23T05:51:01;28.01;47.47
67759;SHT31;54562;47.620;18.786;2022-07-23T05:54:08;28.16;46.88
67759;SHT31;54562;47.620;18.786;2022-07-23T05:57:13;28.27;46.20
67759;SHT31;54562;47.620;18.786;2022-07-23T06:00:26;28.35;45.62
67759;SHT31;54562;47.620;18.786;2022-07-23T06:03:32;28.45;45.50
67759;SHT31;54562;47.620;18.786;2022-07-23T06:06:37;28.53;44.99
67759;SHT31;54562;47.620;18.786;2022-07-23T06:09:42;28.59;44.71
67759;SHT31;54562;47.620;18.786;2022-07-23T06:12:49;28.68;44.62
67759;SHT31;54562;47.620;18.786;2022-07-23T06:15:56;28.77;44.58
67759;SHT31;54562;47.620;18.786;2022-07-23T06:19:01;28.84;44.67
67759;SHT31;54562;47.620;18.786;2022-07-23T06:22:07;28.95;44.47
67759;SHT31;54562;47.620;18.786;2022-07-23T06:25:12;29.11;43.67
67759;SHT31;54562;47.620;18.786;2022-07-23T06:28:21;29.25;43.09
67759;SHT31;54562;47.620;18.786;2022-07-23T06:31:26;29.41;42.15
67759;SHT31;54562;47.620;18.786;2022-07-23T06:34:31;29.60;41.97
67759;SHT31;54562;47.620;18.786;2022-07-23T06:37:36;29.73;41.78
67759;SHT31;54562;47.620;18.786;2022-07-23T06:40:41;29.88;41.80
67759;SHT31;54562;47.620;18.786;2022-07-23T06:43:46;29.99;41.63
67759;SHT31;54562;47.620;18.786;2022-07-23T06:46:52;30.12;41.41
67759;SHT31;54562;47.620;18.786;2022-07-23T06:49:57;30.25;40.94
67759;SHT31;54562;47.620;18.786;2022-07-23T06:53:02;30.37;40.59
67759;SHT31;54562;47.620;18.786;2022-07-23T06:56:07;30.51;40.31
67759;SHT31;54562;47.620;18.786;2022-07-23T06:59:12;30.66;39.08
67759;SHT31;54562;47.620;18.786;2022-07-23T07:02:17;30.82;39.21
67759;SHT31;54562;47.620;18.786;2022-07-23T07:05:22;31.05;38.44
67759;SHT31;54562;47.620;18.786;2022-07-23T07:08:29;31.24;37.88
67759;SHT31;54562;47.620;18.786;2022-07-23T07:11:34;31.37;38.14
67759;SHT31;54562;47.620;18.786;2022-07-23T07:14:38;31.51;38.01
67759;SHT31;54562;47.620;18.786;2022-07-23T07:17:43;31.63;37.40
67759;SHT31;54562;47.620;18.786;2022-07-23T07:20:49;31.74;36.72
67759;SHT31;54562;47.620;18.786;2022-07-23T07:23:58;31.85;36.53
67759;SHT31;54562;47.620;18.786;2022-07-23T07:27:03;31.91;36.66
67759;SHT31;54562;47.620;18.786;2022-07-23T07:30:09;32.00;36.42
67759;SHT31;54562;47.620;18.786;2022-07-23T07:33:15;32.08;35.58
67759;SHT31;54562;47.620;18.786;2022-07-23T07:36:20;32.17;35.58
67759;SHT31;54562;47.620;18.786;2022-07-23T07:39:25;32.29;34.89
67759;SHT31;54562;47.620;18.786;2022-07-23T07:42:30;32.38;34.77
67759;SHT31;54562;47.620;18.786;2022-07-23T07:45:35;32.46;34.63
67759;SHT31;54562;47.620;18.786;2022-07-23T07:48:40;32.54;34.24
67759;SHT31;54562;47.620;18.786;2022-07-23T07:51:45;32.68;34.42
67759;SHT31;54562;47.620;18.786;2022-07-23T07:54:50;32.81;34.22
67759;SHT31;54562;47.620;18.786;2022-07-23T07:57:55;32.91;33.90
67759;SHT31;54562;47.620;18.786;2022-07-23T08:01:00;33.01;34.06
67759;SHT31;54562;47.620;18.786;2022-07-23T08:04:05;33.15;34.12
67759;SHT31;54562;47.620;18.786;2022-07-23T08:07:10;33.28;33.71
67759;SHT31;54562;47.620;18.786;2022-07-23T08:10:14;33.40;32.88
67759;SHT31;54562;47.620;18.786;2022-07-23T08:13:20;33.50;32.83
67759;SHT31;54562;47.620;18.786;2022-07-23T08:16:24;33.60;32.74
67759;SHT31;54562;47.620;18.786;2022-07-23T08:19:29;33.73;32.76
67759;SHT31;54562;47.620;18.786;2022-07-23T08:22:44;33.87;32.39
67759;SHT31;54562;47.620;18.786;2022-07-23T08:25:52;33.93;32.03
67759;SHT31;54562;47.620;18.786;2022-07-23T08:28:58;34.04;32.38
67759;SHT31;54562;47.620;18.786;2022-07-23T08:32:04;34.15;32.06
67759;SHT31;54562;47.620;18.786;2022-07-23T08:35:29;34.29;31.80
67759;SHT31;54562;47.620;18.786;2022-07-23T08:38:36;34.43;31.94
67759;SHT31;54562;47.620;18.786;2022-07-23T08:41:41;34.59;31.52
67759;SHT31;54562;47.620;18.786;2022-07-23T08:44:47;34.69;31.29
67759;SHT31;54562;47.620;18.786;2022-07-23T08:47:52;34.79;31.20
67759;SHT31;54562;47.620;18.786;2022-07-23T08:51:02;34.85;30.60
67759;SHT31;54562;47.620;18.786;2022-07-23T08:54:09;34.86;30.46
67759;SHT31;54562;47.620;18.786;2022-07-23T08:57:15;34.90;30.35
67759;SHT31;54562;47.620;18.786;2022-07-23T09:00:21;34.97;30.10
67759;SHT31;54562;47.620;18.786;2022-07-23T09:03:27;35.03;30.08
67759;SHT31;54562;47.620;18.786;2022-07-23T09:06:33;35.12;30.00
67759;SHT31;54562;47.620;18.786;2022-07-23T09:09:42;35.28;29.63
67759;SHT31;54562;47.620;18.786;2022-07-23T09:12:46;35.36;29.52
67759;SHT31;54562;47.620;18.786;2022-07-23T09:15:52;35.47;29.32
67759;SHT31;54562;47.620;18.786;2022-07-23T09:18:59;35.59;29.08
67759;SHT31;54562;47.620;18.786;2022-07-23T09:22:19;35.70;28.88
67759;SHT31;54562;47.620;18.786;2022-07-23T09:25:30;35.76;28.67
67759;SHT31;54562;47.620;18.786;2022-07-23T09:28:46;35.82;28.64
67759;SHT31;54562;47.620;18.786;2022-07-23T09:31:57;35.92;28.67
67759;SHT31;54562;47.620;18.786;2022-07-23T09:35:04;36.01;28.53
67759;SHT31;54562;47.620;18.786;2022-07-23T09:38:10;36.08;28.24
67759;SHT31;54562;47.620;18.786;2022-07-23T09:41:16;36.19;28.22
67759;SHT31;54562;47.620;18.786;2022-07-23T09:44:21;36.36;28.15
67759;SHT31;54562;47.620;18.786;2022-07-23T09:47:30;36.51;27.72
67759;SHT31;54562;47.620;18.786;2022-07-23T09:50:37;36.57;27.43
67759;SHT31;54562;47.620;18.786;2022-07-23T09:53:43;36.67;27.39
67759;SHT31;54562;47.620;18.786;2022-07-23T09:56:48;36.87;27.24
67759;SHT31;54562;47.620;18.786;2022-07-23T09:59:54;37.12;27.33
67759;SHT31;54562;47.620;18.786;2022-07-23T10:03:04;37.34;27.17
67759;SHT31;54562;47.620;18.786;2022-07-23T10:06:13;37.39;27.05
67759;SHT31;54562;47.620;18.786;2022-07-23T10:09:20;37.35;26.93
67759;SHT31;54562;47.620;18.786;2022-07-23T10:12:29;37.38;26.96
67759;SHT31;54562;47.620;18.786;2022-07-23T10:15:57;37.45;26.12
67759;SHT31;54562;47.620;18.786;2022-07-23T10:19:04;37.53;26.44
67759;SHT31;54562;47.620;18.786;2022-07-23T10:22:10;37.69;26.56
67759;SHT31;54562;47.620;18.786;2022-07-23T10:25:22;37.95;26.75
67759;SHT31;54562;47.620;18.786;2022-07-23T10:28:45;38.24;26.40
67759;SHT31;54562;47.620;18.786;2022-07-23T10:32:13;38.36;25.74
67759;SHT31;54562;47.620;18.786;2022-07-23T10:35:42;38.47;26.13
67759;SHT31;54562;47.620;18.786;2022-07-23T10:38:57;38.60;25.37
67759;SHT31;54562;47.620;18.786;2022-07-23T10:42:08;38.72;24.95
67759;SHT31;54562;47.620;18.786;2022-07-23T10:45:27;38.74;24.73
67759;SHT31;54562;47.620;18.786;2022-07-23T10:48:35;38.90;24.74
67759;SHT31;54562;47.620;18.786;2022-07-23T10:51:50;38.92;24.57
67759;SHT31;54562;47.620;18.786;2022-07-23T10:55:39;38.98;23.94
67759;SHT31;54562;47.620;18.786;2022-07-23T10:58:48;38.97;24.14
67759;SHT31;54562;47.620;18.786;2022-07-23T11:01:55;38.94;24.13
67759;SHT31;54562;47.620;18.786;2022-07-23T11:05:26;39.04;23.98
67759;SHT31;54562;47.620;18.786;2022-07-23T11:08:44;39.02;23.47
67759;SHT31;54562;47.620;18.786;2022-07-23T11:11:48;38.83;23.71
67759;SHT31;54562;47.620;18.786;2022-07-23T11:15:13;38.77;24.01
67759;SHT31;54562;47.620;18.786;2022-07-23T11:18:19;38.92;24.10
67759;SHT31;54562;47.620;18.786;2022-07-23T11:22:09;38.97;23.64
67759;SHT31;54562;47.620;18.786;2022-07-23T11:25:38;38.93;23.69
67759;SHT31;54562;47.620;18.786;2022-07-23T11:28:43;38.81;23.72
67759;SHT31;54562;47.620;18.786;2022-07-23T11:31:51;38.71;23.86
67759;SHT31;54562;47.620;18.786;2022-07-23T11:34:58;38.54;23.88
67759;SHT31;54562;47.620;18.786;2022-07-23T11:38:04;38.49;23.95
67759;SHT31;54562;47.620;18.786;2022-07-23T11:41:15;38.71;23.98
67759;SHT31;54562;47.620;18.786;2022-07-23T11:44:26;39.02;24.02
67759;SHT31;54562;47.620;18.786;2022-07-23T11:47:31;39.32;23.73
67759;SHT31;54562;47.620;18.786;2022-07-23T11:50:37;39.35;23.73
67759;SHT31;54562;47.620;18.786;2022-07-23T11:53:42;39.40;23.28
67759;SHT31;54562;47.620;18.786;2022-07-23T11:56:55;39.37;23.21
67759;SHT31;54562;47.620;18.786;2022-07-23T12:00:02;39.31;23.57
67759;SHT31;54562;47.620;18.786;2022-07-23T12:03:12;39.23;23.66
67759;SHT31;54562;47.620;18.786;2022-07-23T12:06:17;39.32;23.97
67759;SHT31;54562;47.620;18.786;2022-07-23T12:09:22;39.20;23.75
67759;SHT31;54562;47.620;18.786;2022-07-23T12:12:27;38.94;24.03
67759;SHT31;54562;47.620;18.786;2022-07-23T12:15:39;38.66;24.56
67759;SHT31;54562;47.620;18.786;2022-07-23T12:18:46;38.35;25.15
67759;SHT31;54562;47.620;18.786;2022-07-23T12:21:52;38.11;25.52
67759;SHT31;54562;47.620;18.786;2022-07-23T12:24:58;37.92;25.79
67759;SHT31;54562;47.620;18.786;2022-07-23T12:28:07;37.78;26.17
67759;SHT31;54562;47.620;18.786;2022-07-23T12:31:14;37.69;26.13
67759;SHT31;54562;47.620;18.786;2022-07-23T12:34:29;37.57;26.38
67759;SHT31;54562;47.620;18.786;2022-07-23T12:37:35;37.82;27.20
67759;SHT31;54562;47.620;18.786;2022-07-23T12:40:44;37.99;26.77
67759;SHT31;54562;47.620;18.786;2022-07-23T12:43:50;38.45;26.95
67759;SHT31;54562;47.620;18.786;2022-07-23T12:46:56;38.99;26.40
67759;SHT31;54562;47.620;18.786;2022-07-23T12:50:02;39.35;25.39
67759;SHT31;54562;47.620;18.786;2022-07-23T12:53:09;39.47;25.35
67759;SHT31;54562;47.620;18.786;2022-07-23T12:56:27;39.45;25.45
67759;SHT31;54562;47.620;18.786;2022-07-23T12:59:35;39.50;25.10
67759;SHT31;54562;47.620;18.786;2022-07-23T13:02:45;39.26;25.20
67759;SHT31;54562;47.620;18.786;2022-07-23T13:05:50;39.06;25.44
67759;SHT31;54562;47.620;18.786;2022-07-23T13:08:56;38.89;25.66
67759;SHT31;54562;47.620;18.786;2022-07-23T13:12:03;38.83;25.66
67759;SHT31;54562;47.620;18.786;2022-07-23T13:15:09;38.66;25.41
67759;SHT31;54562;47.620;18.786;2022-07-23T13:18:14;38.33;25.48
67759;SHT31;54562;47.620;18.786;2022-07-23T13:21:22;38.09;25.91
67759;SHT31;54562;47.620;18.786;2022-07-23T13:24:28;38.26;25.89
67759;SHT31;54562;47.620;18.786;2022-07-23T13:27:32;38.55;25.74
67759;SHT31;54562;47.620;18.786;2022-07-23T13:30:42;38.57;25.92
67759;SHT31;54562;47.620;18.786;2022-07-23T13:33:49;38.60;26.22
67759;SHT31;54562;47.620;18.786;2022-07-23T13:36:54;39.08;25.98
67759;SHT31;54562;47.620;18.786;2022-07-23T13:39:59;39.58;25.51
67759;SHT31;54562;47.620;18.786;2022-07-23T13:43:19;40.17;25.04
67759;SHT31;54562;47.620;18.786;2022-07-23T13:46:27;40.66;24.26
67759;SHT31;54562;47.620;18.786;2022-07-23T13:49:33;41.05;23.77
67759;SHT31;54562;47.620;18.786;2022-07-23T13:52:37;41.37;23.75
67759;SHT31;54562;47.620;18.786;2022-07-23T13:55:42;41.36;23.27
67759;SHT31;54562;47.620;18.786;2022-07-23T13:58:50;41.41;23.10
67759;SHT31;54562;47.620;18.786;2022-07-23T14:01:55;41.34;23.06
67759;SHT31;54562;47.620;18.786;2022-07-23T14:05:21;41.41;23.17
67759;SHT31;54562;47.620;18.786;2022-07-23T14:08:26;41.44;22.74
67759;SHT31;54562;47.620;18.786;2022-07-23T14:11:31;41.39;22.66
67759;SHT31;54562;47.620;18.786;2022-07-23T14:14:38;41.27;22.65
67759;SHT31;54562;47.620;18.786;2022-07-23T14:17:44;41.24;22.53
67759;SHT31;54562;47.620;18.786;2022-07-23T14:20:50;41.27;22.02
67759;SHT31;54562;47.620;18.786;2022-07-23T14:23:54;40.92;22.12
67759;SHT31;54562;47.620;18.786;2022-07-23T14:27:00;40.58;22.25
67759;SHT31;54562;47.620;18.786;2022-07-23T14:30:08;40.13;22.43
67759;SHT31;54562;47.620;18.786;2022-07-23T14:33:15;39.64;22.76
67759;SHT31;54562;47.620;18.786;2022-07-23T14:36:21;39.16;23.27
67759;SHT31;54562;47.620;18.786;2022-07-23T14:39:26;38.73;23.83
67759;SHT31;54562;47.620;18.786;2022-07-23T14:42:32;38.33;24.70
67759;SHT31;54562;47.620;18.786;2022-07-23T14:45:37;38.03;25.12
67759;SHT31;54562;47.620;18.786;2022-07-23T14:48:42;37.76;25.78
67759;SHT31;54562;47.620;18.786;2022-07-23T14:51:47;37.52;25.97
67759;SHT31;54562;47.620;18.786;2022-07-23T14:54:53;37.29;26.35
67759;SHT31;54562;47.620;18.786;2022-07-23T14:57:58;37.11;26.60
67759;SHT31;54562;47.620;18.786;2022-07-23T15:01:03;36.91;26.88
67759;SHT31;54562;47.620;18.786;2022-07-23T15:04:09;36.68;27.26
67759;SHT31;54562;47.620;18.786;2022-07-23T15:07:33;36.40;27.66
67759;SHT31;54562;47.620;18.786;2022-07-23T15:10:38;36.15;28.39
67759;SHT31;54562;47.620;18.786;2022-07-23T15:13:44;35.87;29.00
67759;SHT31;54562;47.620;18.786;2022-07-23T15:16:49;35.44;30.49
67759;SHT31;54562;47.620;18.786;2022-07-23T15:19:54;34.81;31.42
67759;SHT31;54562;47.620;18.786;2022-07-23T15:22:59;34.09;31.97
67759;SHT31;54562;47.620;18.786;2022-07-23T15:26:04;33.37;33.70
67759;SHT31;54562;47.620;18.786;2022-07-23T15:29:10;32.55;36.56
67759;SHT31;54562;47.620;18.786;2022-07-23T15:32:15;31.81;38.31
67759;SHT31;54562;47.620;18.786;2022-07-23T15:35:20;31.15;39.22
67759;SHT31;54562;47.620;18.786;2022-07-23T15:38:26;30.51;39.22
67759;SHT31;54562;47.620;18.786;2022-07-23T15:41:32;29.92;41.18
67759;SHT31;54562;47.620;18.786;2022-07-23T15:44:37;29.28;44.78
67759;SHT31;54562;47.620;18.786;2022-07-23T15:47:42;28.55;46.72
67759;SHT31;54562;47.620;18.786;2022-07-23T15:50:47;27.90;48.34
67759;SHT31;54562;47.620;18.786;2022-07-23T15:53:52;27.43;48.66
67759;SHT31;54562;47.620;18.786;2022-07-23T15:56:57;27.12;49.19
67759;SHT31;54562;47.620;18.786;2022-07-23T16:00:09;26.88;49.75
67759;SHT31;54562;47.620;18.786;2022-07-23T16:03:15;26.96;44.69
67759;SHT31;54562;47.620;18.786;2022-07-23T16:06:20;27.46;42.59
67759;SHT31;54562;47.620;18.786;2022-07-23T16:09:27;27.69;44.54
67759;SHT31;54562;47.620;18.786;2022-07-23T16:12:32;27.67;44.86
67759;SHT31;54562;47.620;18.786;2022-07-23T16:15:36;27.59;45.42
67759;SHT31;54562;47.620;18.786;2022-07-23T16:18:43;27.55;45.67
67759;SHT31;54562;47.620;18.786;2022-07-23T16:21:49;27.53;46.02
67759;SHT31;54562;47.620;18.786;2022-07-23T16:24:54;27.48;47.85
67759;SHT31;54562;47.620;18.786;2022-07-23T16:27:59;27.28;50.08
67759;SHT31;54562;47.620;18.786;2022-07-23T16:31:04;27.00;51.87
67759;SHT31;54562;47.620;18.786;2022-07-23T16:34:09;26.76;52.28
67759;SHT31;54562;47.620;18.786;2022-07-23T16:37:14;26.61;51.94
67759;SHT31;54562;47.620;18.786;2022-07-23T16:40:19;26.45;51.72
67759;SHT31;54562;47.620;18.786;2022-07-23T16:43:24;26.29;52.16
67759;SHT31;54562;47.620;18.786;2022-07-23T16:46:28;26.09;52.48
67759;SHT31;54562;47.620;18.786;2022-07-23T16:49:34;25.90;52.92
67759;SHT31;54562;47.620;18.786;2022-07-23T16:52:38;25.75;54.38
67759;SHT31;54562;47.620;18.786;2022-07-23T16:55:43;25.55;55.85
67759;SHT31;54562;47.620;18.786;2022-07-23T16:58:49;25.33;56.93
67759;SHT31;54562;47.620;18.786;2022-07-23T17:01:55;25.21;57.35
67759;SHT31;54562;47.620;18.786;2022-07-23T17:04:59;25.14;58.12
67759;SHT31;54562;47.620;18.786;2022-07-23T17:08:05;25.09;57.84
67759;SHT31;54562;47.620;18.786;2022-07-23T17:11:10;25.07;57.71
67759;SHT31;54562;47.620;18.786;2022-07-23T17:14:15;25.08;58.28
67759;SHT31;54562;47.620;18.786;2022-07-23T17:17:19;25.03;59.38
67759;SHT31;54562;47.620;18.786;2022-07-23T17:20:24;24.96;59.58
67759;SHT31;54562;47.620;18.786;2022-07-23T17:23:29;24.93;59.12
67759;SHT31;54562;47.620;18.786;2022-07-23T17:26:34;24.96;59.15
67759;SHT31;54562;47.620;18.786;2022-07-23T17:29:39;25.03;59.13
67759;SHT31;54562;47.620;18.786;2022-07-23T17:32:44;25.11;59.72
67759;SHT31;54562;47.620;18.786;2022-07-23T17:35:49;25.21;59.92
67759;SHT31;54562;47.620;18.786;2022-07-23T17:38:56;25.26;59.33
67759;SHT31;54562;47.620;18.786;2022-07-23T17:42:07;25.32;58.07
67759;SHT31;54562;47.620;18.786;2022-07-23T17:45:12;25.37;57.84
67759;SHT31;54562;47.620;18.786;2022-07-23T17:48:18;25.33;58.45
67759;SHT31;54562;47.620;18.786;2022-07-23T17:51:23;25.21;59.64
67759;SHT31;54562;47.620;18.786;2022-07-23T17:54:29;25.10;59.59
67759;SHT31;54562;47.620;18.786;2022-07-23T17:57:35;25.07;60.13
67759;SHT31;54562;47.620;18.786;2022-07-23T18:00:39;25.05;61.08
67759;SHT31;54562;47.620;18.786;2022-07-23T18:03:45;25.05;61.47
67759;SHT31;54562;47.620;18.786;2022-07-23T18:06:52;25.02;60.89
67759;SHT31;54562;47.620;18.786;2022-07-23T18:09:57;25.01;60.92
67759;SHT31;54562;47.620;18.786;2022-07-23T18:13:02;24.98;61.19
67759;SHT31;54562;47.620;18.786;2022-07-23T18:16:08;24.95;61.37
67759;SHT31;54562;47.620;18.786;2022-07-23T18:19:13;24.93;61.08
67759;SHT31;54562;47.620;18.786;2022-07-23T18:22:18;24.92;62.04
67759;SHT31;54562;47.620;18.786;2022-07-23T18:25:23;24.84;62.99
67759;SHT31;54562;47.620;18.786;2022-07-23T18:28:30;24.77;62.76
67759;SHT31;54562;47.620;18.786;2022-07-23T18:31:35;24.74;62.53
67759;SHT31;54562;47.620;18.786;2022-07-23T18:34:41;24.71;62.33
67759;SHT31;54562;47.620;18.786;2022-07-23T18:37:46;24.68;62.22
67759;SHT31;54562;47.620;18.786;2022-07-23T18:40:51;24.68;62.42
67759;SHT31;54562;47.620;18.786;2022-07-23T18:43:57;24.69;62.09
67759;SHT31;54562;47.620;18.786;2022-07-23T18:47:03;24.68;61.58
67759;SHT31;54562;47.620;18.786;2022-07-23T18:50:10;24.67;62.06
67759;SHT31;54562;47.620;18.786;2022-07-23T18:53:15;24.64;62.39
67759;SHT31;54562;47.620;18.786;2022-07-23T18:56:20;24.60;62.51
67759;SHT31;54562;47.620;18.786;2022-07-23T18:59:25;24.57;62.33
67759;SHT31;54562;47.620;18.786;2022-07-23T19:02:30;24.55;62.58
67759;SHT31;54562;47.620;18.786;2022-07-23T19:05:36;24.51;62.92
67759;SHT31;54562;47.620;18.786;2022-07-23T19:08:41;24.46;63.34
67759;SHT31;54562;47.620;18.786;2022-07-23T19:11:46;24.39;63.36
67759;SHT31;54562;47.620;18.786;2022-07-23T19:14:51;24.32;63.86
67759;SHT31;54562;47.620;18.786;2022-07-23T19:17:56;24.25;64.20
67759;SHT31;54562;47.620;18.786;2022-07-23T19:21:01;24.19;63.66